sensor_id;sensor_type;location;lat;lon;timestamp;P1;durP1;ratioP1;P2;durP2;ratioP2
10335;SDS011;5213;53.548;9.930;2022-10-30T00:00:58;44.60;;;25.65;;
10335;SDS011;5213;53.548;9.930;2022-10-30T00:03:24;47.33;;;26.40;;
10335;SDS011;5213;53.548;9.930;2022-10-30T00:05:50;41.30;;;25.75;;
10335;SDS011;5213;53.548;9.930;2022-10-30T00:08:18;44.47;;;25.73;;
10335;SDS011;5213;53.548;9.930;2022-10-30T00:10:44;40.45;;;26.23;;
10335;SDS011;5213;53.548;9.930;2022-10-30T00:13:11;42.92;;;25.75;;
10335;SDS011;5213;53.548;9.930;2022-10-30T00:15:38;40.03;;;25.20;;
10335;SDS011;5213;53.548;9.930;2022-10-30T00:18:04;41.53;;;24.65;;
10335;SDS011;5213;53.548;9.930;2022-10-30T00:20:30;40.20;;;24.88;;
10335;SDS011;5213;53.548;9.930;2022-10-30T00:22:56;39.08;;;25.00;;
10335;SDS011;5213;53.548;9.930;2022-10-30T00:25:22;44.67;;;24.92;;
10335;SDS011;5213;53.548;9.930;2022-10-30T00:27:48;43.45;;;24.70;;
10335;SDS011;5213;53.548;9.930;2022-10-30T00:30:14;41.05;;;25.88;;
10335;SDS011;5213;53.548;9.930;2022-10-30T00:32:40;42.25;;;27.27;;
10335;SDS011;5213;53.548;9.930;2022-10-30T00:35:07;52.40;;;33.08;;
10335;SDS011;5213;53.548;9.930;2022-10-30T00:37:33;49.80;;;32.10;;
10335;SDS011;5213;53.548;9.930;2022-10-30T00:39:59;54.33;;;35.40;;
10335;SDS011;5213;53.548;9.930;2022-10-30T00:42:28;54.40;;;34.60;;
10335;SDS011;5213;53.548;9.930;2022-10-30T00:44:54;52.97;;;34.42;;
10335;SDS011;5213;53.548;9.930;2022-10-30T00:47:30;54.10;;;34.17;;
10335;SDS011;5213;53.548;9.930;2022-10-30T00:52:23;53.45;;;32.17;;
10335;SDS011;5213;53.548;9.930;2022-10-30T00:54:51;52.63;;;35.08;;
10335;SDS011;5213;53.548;9.930;2022-10-30T00:57:18;60.25;;;39.00;;
10335;SDS011;5213;53.548;9.930;2022-10-30T00:59:44;64.95;;;41.88;;
10335;SDS011;5213;53.548;9.930;2022-10-30T01:02:11;68.60;;;45.60;;
10335;SDS011;5213;53.548;9.930;2022-10-30T01:04:38;70.60;;;49.97;;
10335;SDS011;5213;53.548;9.930;2022-10-30T01:07:08;78.38;;;51.53;;
10335;SDS011;5213;53.548;9.930;2022-10-30T01:09:35;73.22;;;51.17;;
10335;SDS011;5213;53.548;9.930;2022-10-30T01:12:02;72.47;;;49.38;;
10335;SDS011;5213;53.548;9.930;2022-10-30T01:14:28;73.35;;;49.53;;
10335;SDS011;5213;53.548;9.930;2022-10-30T01:17:13;80.88;;;50.78;;
10335;SDS011;5213;53.548;9.930;2022-10-30T01:24:48;66.88;;;47.58;;
10335;SDS011;5213;53.548;9.930;2022-10-30T01:32:25;51.80;;;35.42;;
10335;SDS011;5213;53.548;9.930;2022-10-30T01:37:31;44.65;;;28.98;;
10335;SDS011;5213;53.548;9.930;2022-10-30T01:40:11;37.28;;;23.42;;
10335;SDS011;5213;53.548;9.930;2022-10-30T01:45:03;32.65;;;20.90;;
10335;SDS011;5213;53.548;9.930;2022-10-30T01:47:33;32.45;;;20.25;;
10335;SDS011;5213;53.548;9.930;2022-10-30T01:52:41;32.35;;;18.90;;
10335;SDS011;5213;53.548;9.930;2022-10-30T01:58:02;30.88;;;19.55;;
10335;SDS011;5213;53.548;9.930;2022-10-30T02:00:30;29.65;;;18.75;;
10335;SDS011;5213;53.548;9.930;2022-10-30T02:02:56;34.25;;;19.02;;
10335;SDS011;5213;53.548;9.930;2022-10-30T02:05:28;30.77;;;18.77;;
10335;SDS011;5213;53.548;9.930;2022-10-30T02:07:55;31.08;;;19.27;;
10335;SDS011;5213;53.548;9.930;2022-10-30T02:10:21;30.00;;;18.20;;
10335;SDS011;5213;53.548;9.930;2022-10-30T02:12:47;30.27;;;19.38;;
10335;SDS011;5213;53.548;9.930;2022-10-30T02:15:13;26.90;;;18.42;;
10335;SDS011;5213;53.548;9.930;2022-10-30T02:17:39;30.05;;;18.42;;
10335;SDS011;5213;53.548;9.930;2022-10-30T02:20:06;25.98;;;17.48;;
10335;SDS011;5213;53.548;9.930;2022-10-30T02:22:32;32.35;;;19.10;;
10335;SDS011;5213;53.548;9.930;2022-10-30T02:24:58;27.67;;;18.50;;
10335;SDS011;5213;53.548;9.930;2022-10-30T02:27:24;29.08;;;18.33;;
10335;SDS011;5213;53.548;9.930;2022-10-30T02:29:50;25.20;;;17.73;;
10335;SDS011;5213;53.548;9.930;2022-10-30T02:32:16;28.17;;;18.35;;
10335;SDS011;5213;53.548;9.930;2022-10-30T02:34:42;27.17;;;18.58;;
10335;SDS011;5213;53.548;9.930;2022-10-30T02:37:08;27.27;;;17.08;;
10335;SDS011;5213;53.548;9.930;2022-10-30T02:39:34;26.27;;;17.70;;
10335;SDS011;5213;53.548;9.930;2022-10-30T02:42:00;27.65;;;18.30;;
10335;SDS011;5213;53.548;9.930;2022-10-30T02:44:26;26.15;;;18.42;;
10335;SDS011;5213;53.548;9.930;2022-10-30T02:46:52;29.08;;;17.33;;
10335;SDS011;5213;53.548;9.930;2022-10-30T02:49:18;25.55;;;17.73;;
10335;SDS011;5213;53.548;9.930;2022-10-30T02:51:44;25.98;;;17.60;;
10335;SDS011;5213;53.548;9.930;2022-10-30T02:54:10;28.13;;;17.50;;
10335;SDS011;5213;53.548;9.930;2022-10-30T02:56:36;26.70;;;16.98;;
10335;SDS011;5213;53.548;9.930;2022-10-30T02:59:04;25.15;;;17.25;;
10335;SDS011;5213;53.548;9.930;2022-10-30T03:01:30;23.02;;;17.60;;
10335;SDS011;5213;53.548;9.930;2022-10-30T03:03:56;30.42;;;18.13;;
10335;SDS011;5213;53.548;9.930;2022-10-30T03:06:22;23.83;;;17.92;;
10335;SDS011;5213;53.548;9.930;2022-10-30T03:08:48;29.23;;;18.70;;
10335;SDS011;5213;53.548;9.930;2022-10-30T03:11:15;28.02;;;18.65;;
10335;SDS011;5213;53.548;9.930;2022-10-30T03:13:42;29.15;;;18.40;;
10335;SDS011;5213;53.548;9.930;2022-10-30T03:16:09;29.40;;;18.83;;
10335;SDS011;5213;53.548;9.930;2022-10-30T03:18:36;26.10;;;18.95;;
10335;SDS011;5213;53.548;9.930;2022-10-30T03:21:02;29.92;;;19.65;;
10335;SDS011;5213;53.548;9.930;2022-10-30T03:23:29;32.15;;;19.55;;
10335;SDS011;5213;53.548;9.930;2022-10-30T03:25:55;28.30;;;19.70;;
10335;SDS011;5213;53.548;9.930;2022-10-30T03:28:22;31.23;;;19.30;;
10335;SDS011;5213;53.548;9.930;2022-10-30T03:30:49;29.00;;;19.27;;
10335;SDS011;5213;53.548;9.930;2022-10-30T03:33:15;29.60;;;18.40;;
10335;SDS011;5213;53.548;9.930;2022-10-30T03:35:44;31.08;;;18.75;;
10335;SDS011;5213;53.548;9.930;2022-10-30T03:38:11;32.03;;;18.98;;
10335;SDS011;5213;53.548;9.930;2022-10-30T03:40:38;29.27;;;19.45;;
10335;SDS011;5213;53.548;9.930;2022-10-30T03:43:04;29.08;;;18.48;;
10335;SDS011;5213;53.548;9.930;2022-10-30T03:45:33;26.35;;;18.50;;
10335;SDS011;5213;53.548;9.930;2022-10-30T03:48:00;29.00;;;19.20;;
10335;SDS011;5213;53.548;9.930;2022-10-30T03:50:26;28.27;;;19.50;;
10335;SDS011;5213;53.548;9.930;2022-10-30T03:52:53;29.33;;;18.00;;
10335;SDS011;5213;53.548;9.930;2022-10-30T03:55:19;29.75;;;18.40;;
10335;SDS011;5213;53.548;9.930;2022-10-30T03:57:45;26.45;;;18.30;;
10335;SDS011;5213;53.548;9.930;2022-10-30T04:00:11;26.52;;;18.20;;
10335;SDS011;5213;53.548;9.930;2022-10-30T04:02:37;24.92;;;19.00;;
10335;SDS011;5213;53.548;9.930;2022-10-30T04:05:03;30.45;;;18.73;;
10335;SDS011;5213;53.548;9.930;2022-10-30T04:07:29;26.27;;;19.20;;
10335;SDS011;5213;53.548;9.930;2022-10-30T04:09:55;28.25;;;18.45;;
10335;SDS011;5213;53.548;9.930;2022-10-30T04:12:21;27.70;;;19.17;;
10335;SDS011;5213;53.548;9.930;2022-10-30T04:14:47;33.50;;;19.33;;
10335;SDS011;5213;53.548;9.930;2022-10-30T04:17:13;24.25;;;18.15;;
10335;SDS011;5213;53.548;9.930;2022-10-30T04:19:39;31.75;;;19.23;;
10335;SDS011;5213;53.548;9.930;2022-10-30T04:22:05;29.75;;;18.80;;
10335;SDS011;5213;53.548;9.930;2022-10-30T04:24:31;26.45;;;18.27;;
10335;SDS011;5213;53.548;9.930;2022-10-30T04:26:57;25.83;;;18.42;;
10335;SDS011;5213;53.548;9.930;2022-10-30T04:29:23;29.77;;;18.63;;
10335;SDS011;5213;53.548;9.930;2022-10-30T04:31:49;26.67;;;17.42;;
10335;SDS011;5213;53.548;9.930;2022-10-30T04:34:15;27.67;;;18.77;;
10335;SDS011;5213;53.548;9.930;2022-10-30T04:36:41;26.70;;;18.08;;
10335;SDS011;5213;53.548;9.930;2022-10-30T04:39:07;25.73;;;18.75;;
10335;SDS011;5213;53.548;9.930;2022-10-30T04:41:33;29.17;;;18.88;;
10335;SDS011;5213;53.548;9.930;2022-10-30T04:43:58;27.23;;;18.30;;
10335;SDS011;5213;53.548;9.930;2022-10-30T04:46:24;29.08;;;17.55;;
10335;SDS011;5213;53.548;9.930;2022-10-30T04:48:50;28.33;;;18.33;;
10335;SDS011;5213;53.548;9.930;2022-10-30T04:51:17;24.85;;;18.33;;
10335;SDS011;5213;53.548;9.930;2022-10-30T04:53:43;27.45;;;17.92;;
10335;SDS011;5213;53.548;9.930;2022-10-30T04:56:09;28.23;;;17.73;;
10335;SDS011;5213;53.548;9.930;2022-10-30T04:58:35;25.48;;;17.80;;
10335;SDS011;5213;53.548;9.930;2022-10-30T05:01:01;25.00;;;18.55;;
10335;SDS011;5213;53.548;9.930;2022-10-30T05:03:27;23.63;;;17.00;;
10335;SDS011;5213;53.548;9.930;2022-10-30T05:05:54;25.10;;;18.02;;
10335;SDS011;5213;53.548;9.930;2022-10-30T05:08:21;26.13;;;17.83;;
10335;SDS011;5213;53.548;9.930;2022-10-30T05:10:47;24.15;;;16.55;;
10335;SDS011;5213;53.548;9.930;2022-10-30T05:13:13;24.95;;;17.23;;
10335;SDS011;5213;53.548;9.930;2022-10-30T05:15:39;24.10;;;16.58;;
10335;SDS011;5213;53.548;9.930;2022-10-30T05:18:05;25.15;;;17.02;;
10335;SDS011;5213;53.548;9.930;2022-10-30T05:20:31;24.15;;;17.73;;
10335;SDS011;5213;53.548;9.930;2022-10-30T05:22:58;24.58;;;17.30;;
10335;SDS011;5213;53.548;9.930;2022-10-30T05:25:24;22.00;;;16.55;;
10335;SDS011;5213;53.548;9.930;2022-10-30T05:27:56;23.30;;;16.67;;
10335;SDS011;5213;53.548;9.930;2022-10-30T05:30:22;25.85;;;16.88;;
10335;SDS011;5213;53.548;9.930;2022-10-30T05:32:48;23.48;;;16.40;;
10335;SDS011;5213;53.548;9.930;2022-10-30T05:35:13;23.92;;;15.60;;
10335;SDS011;5213;53.548;9.930;2022-10-30T05:37:39;23.17;;;14.32;;
10335;SDS011;5213;53.548;9.930;2022-10-30T05:40:05;19.45;;;14.60;;
10335;SDS011;5213;53.548;9.930;2022-10-30T05:42:32;22.38;;;15.10;;
10335;SDS011;5213;53.548;9.930;2022-10-30T05:44:57;21.08;;;14.80;;
10335;SDS011;5213;53.548;9.930;2022-10-30T05:47:23;24.17;;;14.55;;
10335;SDS011;5213;53.548;9.930;2022-10-30T05:49:49;21.63;;;15.30;;
10335;SDS011;5213;53.548;9.930;2022-10-30T05:52:15;24.77;;;14.50;;
10335;SDS011;5213;53.548;9.930;2022-10-30T05:54:41;23.23;;;14.02;;
10335;SDS011;5213;53.548;9.930;2022-10-30T05:57:07;20.08;;;13.65;;
10335;SDS011;5213;53.548;9.930;2022-10-30T05:59:33;23.70;;;13.60;;
10335;SDS011;5213;53.548;9.930;2022-10-30T06:01:59;19.52;;;13.23;;
10335;SDS011;5213;53.548;9.930;2022-10-30T06:04:25;20.77;;;13.05;;
10335;SDS011;5213;53.548;9.930;2022-10-30T06:06:51;16.85;;;12.60;;
10335;SDS011;5213;53.548;9.930;2022-10-30T06:09:17;20.25;;;11.48;;
10335;SDS011;5213;53.548;9.930;2022-10-30T06:11:43;19.42;;;12.50;;
10335;SDS011;5213;53.548;9.930;2022-10-30T06:14:09;24.83;;;12.73;;
10335;SDS011;5213;53.548;9.930;2022-10-30T06:16:35;20.65;;;11.55;;
10335;SDS011;5213;53.548;9.930;2022-10-30T06:19:01;19.40;;;11.65;;
10335;SDS011;5213;53.548;9.930;2022-10-30T06:21:27;18.38;;;12.02;;
10335;SDS011;5213;53.548;9.930;2022-10-30T06:23:53;17.23;;;12.13;;
10335;SDS011;5213;53.548;9.930;2022-10-30T06:26:19;22.67;;;12.50;;
10335;SDS011;5213;53.548;9.930;2022-10-30T06:28:45;20.33;;;13.40;;
10335;SDS011;5213;53.548;9.930;2022-10-30T06:31:11;21.60;;;14.38;;
10335;SDS011;5213;53.548;9.930;2022-10-30T06:33:37;21.92;;;14.38;;
10335;SDS011;5213;53.548;9.930;2022-10-30T06:36:03;19.67;;;14.30;;
10335;SDS011;5213;53.548;9.930;2022-10-30T06:38:29;23.55;;;14.35;;
10335;SDS011;5213;53.548;9.930;2022-10-30T06:40:55;22.65;;;14.75;;
10335;SDS011;5213;53.548;9.930;2022-10-30T06:43:21;20.20;;;14.00;;
10335;SDS011;5213;53.548;9.930;2022-10-30T06:45:47;19.67;;;13.73;;
10335;SDS011;5213;53.548;9.930;2022-10-30T06:48:13;19.25;;;13.80;;
10335;SDS011;5213;53.548;9.930;2022-10-30T06:50:40;19.60;;;13.75;;
10335;SDS011;5213;53.548;9.930;2022-10-30T06:53:06;19.02;;;14.00;;
10335;SDS011;5213;53.548;9.930;2022-10-30T06:55:32;20.70;;;14.05;;
10335;SDS011;5213;53.548;9.930;2022-10-30T06:57:58;23.88;;;14.10;;
10335;SDS011;5213;53.548;9.930;2022-10-30T07:00:23;17.95;;;13.23;;
10335;SDS011;5213;53.548;9.930;2022-10-30T07:02:56;21.58;;;13.93;;
10335;SDS011;5213;53.548;9.930;2022-10-30T07:05:23;20.90;;;14.30;;
10335;SDS011;5213;53.548;9.930;2022-10-30T07:07:49;20.00;;;13.82;;
10335;SDS011;5213;53.548;9.930;2022-10-30T07:10:15;19.63;;;13.63;;
10335;SDS011;5213;53.548;9.930;2022-10-30T07:12:41;17.75;;;13.52;;
10335;SDS011;5213;53.548;9.930;2022-10-30T07:15:07;22.48;;;14.00;;
10335;SDS011;5213;53.548;9.930;2022-10-30T07:17:33;20.33;;;13.95;;
10335;SDS011;5213;53.548;9.930;2022-10-30T07:19:59;19.80;;;13.27;;
10335;SDS011;5213;53.548;9.930;2022-10-30T07:22:25;18.48;;;13.68;;
10335;SDS011;5213;53.548;9.930;2022-10-30T07:24:51;22.92;;;13.10;;
10335;SDS011;5213;53.548;9.930;2022-10-30T07:27:17;17.45;;;13.27;;
10335;SDS011;5213;53.548;9.930;2022-10-30T07:29:43;20.73;;;14.15;;
10335;SDS011;5213;53.548;9.930;2022-10-30T07:32:10;22.60;;;14.25;;
10335;SDS011;5213;53.548;9.930;2022-10-30T07:34:36;22.85;;;14.27;;
10335;SDS011;5213;53.548;9.930;2022-10-30T07:37:02;18.20;;;13.48;;
10335;SDS011;5213;53.548;9.930;2022-10-30T07:39:28;17.45;;;13.38;;
10335;SDS011;5213;53.548;9.930;2022-10-30T07:41:54;17.95;;;13.15;;
10335;SDS011;5213;53.548;9.930;2022-10-30T07:44:20;16.92;;;12.77;;
10335;SDS011;5213;53.548;9.930;2022-10-30T07:46:46;19.95;;;12.55;;
10335;SDS011;5213;53.548;9.930;2022-10-30T07:49:12;19.00;;;13.02;;
10335;SDS011;5213;53.548;9.930;2022-10-30T07:51:38;20.40;;;12.98;;
10335;SDS011;5213;53.548;9.930;2022-10-30T07:54:04;17.17;;;12.13;;
10335;SDS011;5213;53.548;9.930;2022-10-30T07:56:30;16.95;;;11.85;;
10335;SDS011;5213;53.548;9.930;2022-10-30T07:58:56;18.60;;;11.80;;
10335;SDS011;5213;53.548;9.930;2022-10-30T08:01:22;16.75;;;11.38;;
10335;SDS011;5213;53.548;9.930;2022-10-30T08:03:48;17.67;;;10.70;;
10335;SDS011;5213;53.548;9.930;2022-10-30T08:06:14;14.48;;;10.35;;
10335;SDS011;5213;53.548;9.930;2022-10-30T08:08:40;16.20;;;9.73;;
10335;SDS011;5213;53.548;9.930;2022-10-30T08:11:06;15.75;;;9.60;;
10335;SDS011;5213;53.548;9.930;2022-10-30T08:13:32;15.30;;;10.23;;
10335;SDS011;5213;53.548;9.930;2022-10-30T08:15:58;15.73;;;9.98;;
10335;SDS011;5213;53.548;9.930;2022-10-30T08:18:24;15.35;;;10.15;;
10335;SDS011;5213;53.548;9.930;2022-10-30T08:20:50;16.50;;;9.95;;
10335;SDS011;5213;53.548;9.930;2022-10-30T08:23:16;14.88;;;9.10;;
10335;SDS011;5213;53.548;9.930;2022-10-30T08:25:43;18.48;;;9.95;;
10335;SDS011;5213;53.548;9.930;2022-10-30T08:28:10;16.50;;;10.45;;
10335;SDS011;5213;53.548;9.930;2022-10-30T08:30:36;14.52;;;9.77;;
10335;SDS011;5213;53.548;9.930;2022-10-30T08:33:04;15.07;;;10.10;;
10335;SDS011;5213;53.548;9.930;2022-10-30T08:35:30;20.67;;;9.68;;
10335;SDS011;5213;53.548;9.930;2022-10-30T08:37:57;15.18;;;9.50;;
10335;SDS011;5213;53.548;9.930;2022-10-30T08:40:24;14.80;;;9.32;;
10335;SDS011;5213;53.548;9.930;2022-10-30T08:42:50;15.65;;;9.10;;
10335;SDS011;5213;53.548;9.930;2022-10-30T08:45:17;19.25;;;9.27;;
10335;SDS011;5213;53.548;9.930;2022-10-30T08:47:43;14.77;;;9.55;;
10335;SDS011;5213;53.548;9.930;2022-10-30T08:50:08;16.20;;;9.40;;
10335;SDS011;5213;53.548;9.930;2022-10-30T08:52:34;17.85;;;9.02;;
10335;SDS011;5213;53.548;9.930;2022-10-30T08:55:00;15.27;;;8.57;;
10335;SDS011;5213;53.548;9.930;2022-10-30T08:57:26;13.75;;;8.98;;
10335;SDS011;5213;53.548;9.930;2022-10-30T08:59:52;14.93;;;8.93;;
10335;SDS011;5213;53.548;9.930;2022-10-30T09:02:18;12.63;;;9.48;;
10335;SDS011;5213;53.548;9.930;2022-10-30T09:04:44;18.67;;;9.30;;
10335;SDS011;5213;53.548;9.930;2022-10-30T09:07:10;11.23;;;8.60;;
10335;SDS011;5213;53.548;9.930;2022-10-30T09:09:36;14.82;;;8.88;;
10335;SDS011;5213;53.548;9.930;2022-10-30T09:12:02;17.08;;;9.48;;
10335;SDS011;5213;53.548;9.930;2022-10-30T09:14:28;17.05;;;9.38;;
10335;SDS011;5213;53.548;9.930;2022-10-30T09:16:55;15.35;;;9.07;;
10335;SDS011;5213;53.548;9.930;2022-10-30T09:19:20;17.42;;;9.45;;
10335;SDS011;5213;53.548;9.930;2022-10-30T09:21:48;16.35;;;9.20;;
10335;SDS011;5213;53.548;9.930;2022-10-30T09:24:14;17.33;;;9.45;;
10335;SDS011;5213;53.548;9.930;2022-10-30T09:26:40;16.55;;;8.77;;
10335;SDS011;5213;53.548;9.930;2022-10-30T09:29:06;14.10;;;9.20;;
10335;SDS011;5213;53.548;9.930;2022-10-30T09:31:32;12.57;;;9.02;;
10335;SDS011;5213;53.548;9.930;2022-10-30T09:33:58;12.98;;;9.02;;
10335;SDS011;5213;53.548;9.930;2022-10-30T09:36:24;16.75;;;9.13;;
10335;SDS011;5213;53.548;9.930;2022-10-30T09:38:50;17.35;;;9.20;;
10335;SDS011;5213;53.548;9.930;2022-10-30T09:41:36;19.67;;;9.70;;
10335;SDS011;5213;53.548;9.930;2022-10-30T09:51:55;14.55;;;9.30;;
10335;SDS011;5213;53.548;9.930;2022-10-30T09:54:30;12.75;;;8.85;;
10335;SDS011;5213;53.548;9.930;2022-10-30T10:04:57;18.33;;;9.32;;
10335;SDS011;5213;53.548;9.930;2022-10-30T10:07:26;14.75;;;9.00;;
10335;SDS011;5213;53.548;9.930;2022-10-30T10:09:54;21.00;;;10.07;;
10335;SDS011;5213;53.548;9.930;2022-10-30T10:12:31;13.32;;;8.85;;
10335;SDS011;5213;53.548;9.930;2022-10-30T10:14:58;18.27;;;9.32;;
10335;SDS011;5213;53.548;9.930;2022-10-30T10:17:34;17.65;;;9.57;;
10335;SDS011;5213;53.548;9.930;2022-10-30T10:20:02;13.98;;;9.68;;
10335;SDS011;5213;53.548;9.930;2022-10-30T10:24:56;15.43;;;9.15;;
10335;SDS011;5213;53.548;9.930;2022-10-30T10:34:58;16.63;;;9.55;;
10335;SDS011;5213;53.548;9.930;2022-10-30T10:45:11;14.77;;;9.30;;
10335;SDS011;5213;53.548;9.930;2022-10-30T10:50:14;17.20;;;9.02;;
10335;SDS011;5213;53.548;9.930;2022-10-30T10:52:56;17.48;;;9.13;;
10335;SDS011;5213;53.548;9.930;2022-10-30T10:55:32;15.57;;;9.40;;
10335;SDS011;5213;53.548;9.930;2022-10-30T10:58:05;14.57;;;9.43;;
10335;SDS011;5213;53.548;9.930;2022-10-30T11:00:31;20.77;;;9.68;;
10335;SDS011;5213;53.548;9.930;2022-10-30T11:03:01;17.17;;;9.25;;
10335;SDS011;5213;53.548;9.930;2022-10-30T11:08:15;17.63;;;10.52;;
10335;SDS011;5213;53.548;9.930;2022-10-30T11:10:47;15.05;;;8.80;;
10335;SDS011;5213;53.548;9.930;2022-10-30T11:13:14;17.80;;;8.85;;
10335;SDS011;5213;53.548;9.930;2022-10-30T11:15:52;16.35;;;9.00;;
10335;SDS011;5213;53.548;9.930;2022-10-30T11:18:19;16.27;;;9.82;;
10335;SDS011;5213;53.548;9.930;2022-10-30T11:23:34;14.32;;;9.15;;
10335;SDS011;5213;53.548;9.930;2022-10-30T11:26:03;17.00;;;9.27;;
10335;SDS011;5213;53.548;9.930;2022-10-30T11:28:38;18.00;;;8.88;;
10335;SDS011;5213;53.548;9.930;2022-10-30T11:31:27;14.15;;;9.60;;
10335;SDS011;5213;53.548;9.930;2022-10-30T11:33:52;16.00;;;9.35;;
10335;SDS011;5213;53.548;9.930;2022-10-30T11:36:21;21.65;;;8.70;;
10335;SDS011;5213;53.548;9.930;2022-10-30T11:38:47;16.10;;;8.60;;
10335;SDS011;5213;53.548;9.930;2022-10-30T11:41:13;16.67;;;8.55;;
10335;SDS011;5213;53.548;9.930;2022-10-30T11:43:40;13.75;;;8.80;;
10335;SDS011;5213;53.548;9.930;2022-10-30T11:46:08;14.32;;;8.80;;
10335;SDS011;5213;53.548;9.930;2022-10-30T11:48:36;15.75;;;8.68;;
10335;SDS011;5213;53.548;9.930;2022-10-30T11:51:04;13.60;;;9.05;;
10335;SDS011;5213;53.548;9.930;2022-10-30T11:53:38;15.23;;;9.35;;
10335;SDS011;5213;53.548;9.930;2022-10-30T11:56:15;12.93;;;8.70;;
10335;SDS011;5213;53.548;9.930;2022-10-30T11:58:50;15.27;;;9.00;;
10335;SDS011;5213;53.548;9.930;2022-10-30T12:01:21;16.23;;;8.77;;
10335;SDS011;5213;53.548;9.930;2022-10-30T12:03:48;13.38;;;8.52;;
10335;SDS011;5213;53.548;9.930;2022-10-30T12:08:40;16.38;;;8.77;;
10335;SDS011;5213;53.548;9.930;2022-10-30T12:11:06;16.45;;;8.18;;
10335;SDS011;5213;53.548;9.930;2022-10-30T12:13:35;14.70;;;8.88;;
10335;SDS011;5213;53.548;9.930;2022-10-30T12:16:03;18.70;;;9.80;;
10335;SDS011;5213;53.548;9.930;2022-10-30T12:18:30;15.65;;;8.75;;
10335;SDS011;5213;53.548;9.930;2022-10-30T12:20:57;12.88;;;8.55;;
10335;SDS011;5213;53.548;9.930;2022-10-30T12:23:23;14.48;;;9.13;;
10335;SDS011;5213;53.548;9.930;2022-10-30T12:25:51;15.73;;;8.57;;
10335;SDS011;5213;53.548;9.930;2022-10-30T12:28:19;16.13;;;9.38;;
10335;SDS011;5213;53.548;9.930;2022-10-30T12:30:50;15.70;;;9.20;;
10335;SDS011;5213;53.548;9.930;2022-10-30T12:33:28;16.63;;;8.82;;
10335;SDS011;5213;53.548;9.930;2022-10-30T12:35:57;17.67;;;10.05;;
10335;SDS011;5213;53.548;9.930;2022-10-30T12:38:25;16.48;;;9.65;;
10335;SDS011;5213;53.548;9.930;2022-10-30T12:40:57;16.40;;;9.00;;
10335;SDS011;5213;53.548;9.930;2022-10-30T12:43:25;21.17;;;10.73;;
10335;SDS011;5213;53.548;9.930;2022-10-30T12:45:53;17.55;;;9.80;;
10335;SDS011;5213;53.548;9.930;2022-10-30T12:48:22;18.75;;;9.77;;
10335;SDS011;5213;53.548;9.930;2022-10-30T12:55:48;18.73;;;9.68;;
10335;SDS011;5213;53.548;9.930;2022-10-30T12:58:30;16.52;;;9.65;;
10335;SDS011;5213;53.548;9.930;2022-10-30T13:01:01;20.67;;;9.75;;
10335;SDS011;5213;53.548;9.930;2022-10-30T13:05:59;19.98;;;9.25;;
10335;SDS011;5213;53.548;9.930;2022-10-30T13:11:10;15.52;;;9.35;;
10335;SDS011;5213;53.548;9.930;2022-10-30T13:13:42;16.63;;;9.43;;
10335;SDS011;5213;53.548;9.930;2022-10-30T13:16:11;16.92;;;9.60;;
10335;SDS011;5213;53.548;9.930;2022-10-30T13:18:39;16.83;;;10.38;;
10335;SDS011;5213;53.548;9.930;2022-10-30T13:24:01;17.70;;;10.43;;
10335;SDS011;5213;53.548;9.930;2022-10-30T13:31:34;18.00;;;10.18;;
10335;SDS011;5213;53.548;9.930;2022-10-30T13:34:23;23.08;;;10.00;;
10335;SDS011;5213;53.548;9.930;2022-10-30T13:37:03;17.73;;;10.00;;
10335;SDS011;5213;53.548;9.930;2022-10-30T13:39:31;13.43;;;9.65;;
10335;SDS011;5213;53.548;9.930;2022-10-30T13:44:34;17.60;;;9.57;;
10335;SDS011;5213;53.548;9.930;2022-10-30T13:52:19;13.93;;;10.00;;
10335;SDS011;5213;53.548;9.930;2022-10-30T13:54:57;13.57;;;9.00;;
10335;SDS011;5213;53.548;9.930;2022-10-30T14:02:44;19.80;;;10.30;;
10335;SDS011;5213;53.548;9.930;2022-10-30T14:05:22;20.13;;;10.00;;
10335;SDS011;5213;53.548;9.930;2022-10-30T14:07:52;15.98;;;9.48;;
10335;SDS011;5213;53.548;9.930;2022-10-30T14:12:51;18.58;;;9.90;;
10335;SDS011;5213;53.548;9.930;2022-10-30T14:15:19;15.93;;;9.48;;
10335;SDS011;5213;53.548;9.930;2022-10-30T14:20:33;18.42;;;10.02;;
10335;SDS011;5213;53.548;9.930;2022-10-30T14:23:45;20.10;;;10.00;;
10335;SDS011;5213;53.548;9.930;2022-10-30T14:28:24;19.33;;;10.48;;
10335;SDS011;5213;53.548;9.930;2022-10-30T14:31:00;14.82;;;9.70;;
10335;SDS011;5213;53.548;9.930;2022-10-30T14:36:20;20.30;;;9.77;;
10335;SDS011;5213;53.548;9.930;2022-10-30T14:51:58;13.88;;;9.30;;
10335;SDS011;5213;53.548;9.930;2022-10-30T14:54:40;19.08;;;10.25;;
10335;SDS011;5213;53.548;9.930;2022-10-30T14:57:20;15.38;;;10.00;;
10335;SDS011;5213;53.548;9.930;2022-10-30T14:59:47;15.95;;;10.27;;
10335;SDS011;5213;53.548;9.930;2022-10-30T15:04:56;18.83;;;10.18;;
10335;SDS011;5213;53.548;9.930;2022-10-30T15:14:44;19.92;;;11.55;;
10335;SDS011;5213;53.548;9.930;2022-10-30T15:17:18;17.35;;;10.38;;
10335;SDS011;5213;53.548;9.930;2022-10-30T15:19:47;17.17;;;11.65;;
10335;SDS011;5213;53.548;9.930;2022-10-30T15:22:16;17.67;;;11.32;;
10335;SDS011;5213;53.548;9.930;2022-10-30T15:24:43;18.33;;;11.80;;
10335;SDS011;5213;53.548;9.930;2022-10-30T15:27:10;19.95;;;12.63;;
10335;SDS011;5213;53.548;9.930;2022-10-30T15:29:38;18.55;;;12.18;;
10335;SDS011;5213;53.548;9.930;2022-10-30T15:32:14;22.95;;;12.52;;
10335;SDS011;5213;53.548;9.930;2022-10-30T15:34:40;19.65;;;11.85;;
10335;SDS011;5213;53.548;9.930;2022-10-30T15:37:16;19.38;;;12.52;;
10335;SDS011;5213;53.548;9.930;2022-10-30T15:39:42;19.58;;;13.95;;
10335;SDS011;5213;53.548;9.930;2022-10-30T15:42:08;21.55;;;13.20;;
10335;SDS011;5213;53.548;9.930;2022-10-30T15:44:35;22.80;;;14.02;;
10335;SDS011;5213;53.548;9.930;2022-10-30T15:47:02;20.83;;;16.08;;
10335;SDS011;5213;53.548;9.930;2022-10-30T15:49:31;24.23;;;14.75;;
10335;SDS011;5213;53.548;9.930;2022-10-30T15:51:57;22.10;;;14.50;;
10335;SDS011;5213;53.548;9.930;2022-10-30T15:54:24;19.98;;;14.32;;
10335;SDS011;5213;53.548;9.930;2022-10-30T15:56:52;21.73;;;15.20;;
10335;SDS011;5213;53.548;9.930;2022-10-30T15:59:23;22.77;;;15.45;;
10335;SDS011;5213;53.548;9.930;2022-10-30T16:01:52;23.67;;;15.25;;
10335;SDS011;5213;53.548;9.930;2022-10-30T16:04:19;25.83;;;16.20;;
10335;SDS011;5213;53.548;9.930;2022-10-30T16:06:50;20.52;;;14.68;;
10335;SDS011;5213;53.548;9.930;2022-10-30T16:09:16;24.00;;;15.88;;
10335;SDS011;5213;53.548;9.930;2022-10-30T16:11:43;24.90;;;16.05;;
10335;SDS011;5213;53.548;9.930;2022-10-30T16:14:12;25.20;;;15.70;;
10335;SDS011;5213;53.548;9.930;2022-10-30T16:16:38;25.13;;;15.43;;
10335;SDS011;5213;53.548;9.930;2022-10-30T16:19:04;24.08;;;16.35;;
10335;SDS011;5213;53.548;9.930;2022-10-30T16:21:32;22.45;;;16.92;;
10335;SDS011;5213;53.548;9.930;2022-10-30T16:24:00;29.67;;;17.67;;
10335;SDS011;5213;53.548;9.930;2022-10-30T16:28:58;25.95;;;18.23;;
10335;SDS011;5213;53.548;9.930;2022-10-30T16:31:25;30.77;;;18.92;;
10335;SDS011;5213;53.548;9.930;2022-10-30T16:33:54;31.42;;;18.73;;
10335;SDS011;5213;53.548;9.930;2022-10-30T16:36:22;26.58;;;18.55;;
10335;SDS011;5213;53.548;9.930;2022-10-30T16:38:48;26.13;;;18.65;;
10335;SDS011;5213;53.548;9.930;2022-10-30T16:41:15;32.08;;;21.20;;
10335;SDS011;5213;53.548;9.930;2022-10-30T16:43:41;35.85;;;23.67;;
10335;SDS011;5213;53.548;9.930;2022-10-30T16:48:51;27.80;;;20.17;;
10335;SDS011;5213;53.548;9.930;2022-10-30T16:51:19;32.70;;;21.58;;
10335;SDS011;5213;53.548;9.930;2022-10-30T16:53:46;31.80;;;21.60;;
10335;SDS011;5213;53.548;9.930;2022-10-30T16:56:28;34.15;;;22.20;;
10335;SDS011;5213;53.548;9.930;2022-10-30T16:58:56;31.77;;;21.02;;